Time;durP1;ratioP1;P1;durP2;ratioP2;P2;SDS_P1;SDS_P2;PMS_P1;PMS_P2;Temp;Humidity;BMP_temperature;BMP_pressure;BME280_temperature;BME280_humidity;BME280_pressure;Samples;Min_cycle;Max_cycle;Signal;HPM_P1;HPM_P2
2021/10/19 00:00:05;;;;;;;21.25;11.50;;;;;;;;;;5050334;28;20500;-68
2021/10/19 00:02:32;;;;;;;21.13;11.02;;;;;;;;;;5066149;28;20021;-67
2021/10/19 00:04:58;;;;;;;25.65;12.95;;;;;;;;;;5050967;28;20033;-67
2021/10/19 00:07:24;;;;;;;19.55;11.63;;;;;;;;;;5049489;28;20060;-67
2021/10/19 00:09:50;;;;;;;17.00;9.75;;;;;;;;;;5050068;28;20090;-67
2021/10/19 00:12:16;;;;;;;20.60;11.68;;;;;;;;;;5054820;28;20440;-68
2021/10/19 00:14:42;;;;;;;21.95;13.07;;;;;;;;;;5050473;28;20461;-68
2021/10/19 00:17:08;;;;;;;22.63;13.07;;;;;;;;;;5051378;28;20037;-68
2021/10/19 00:19:34;;;;;;;20.23;11.95;;;;;;;;;;5049678;28;20025;-67
2021/10/19 00:22:00;;;;;;;21.25;11.82;;;;;;;;;;5051468;28;20091;-67
2021/10/19 00:24:26;;;;;;;23.35;13.70;;;;;;;;;;5049663;28;20082;-67
2021/10/19 00:26:52;;;;;;;22.70;13.18;;;;;;;;;;5050679;28;20017;-68
2021/10/19 00:29:18;;;;;;;22.80;12.57;;;;;;;;;;5052559;28;20476;-68
2021/10/19 00:31:44;;;;;;;22.92;11.85;;;;;;;;;;5056766;28;20420;-66
2021/10/19 00:34:10;;;;;;;19.40;10.48;;;;;;;;;;5055068;28;20119;-66
2021/10/19 00:36:37;;;;;;;19.30;10.85;;;;;;;;;;5049156;28;20491;-67
2021/10/19 00:39:03;;;;;;;17.98;10.60;;;;;;;;;;5049363;28;20116;-66
2021/10/19 00:41:29;;;;;;;16.33;10.15;;;;;;;;;;5057712;28;20052;-66
2021/10/19 00:43:55;;;;;;;16.83;9.98;;;;;;;;;;5049239;28;20086;-66
2021/10/19 00:46:21;;;;;;;17.77;9.77;;;;;;;;;;5048977;28;20465;-66
2021/10/19 00:48:47;;;;;;;17.83;10.05;;;;;;;;;;5049094;28;20074;-66
2021/10/19 00:51:15;;;;;;;17.98;10.60;;;;;;;;;;5051955;28;20025;-66
2021/10/19 00:53:42;;;;;;;19.38;9.48;;;;;;;;;;5050625;28;20044;-67
2021/10/19 00:56:08;;;;;;;16.38;9.80;;;;;;;;;;5049966;28;20032;-66
2021/10/19 00:58:37;;;;;;;19.55;10.13;;;;;;;;;;5049092;28;20033;-67
2021/10/19 01:01:03;;;;;;;15.90;9.20;;;;;;;;;;5050873;28;20032;-67
2021/10/19 01:03:29;;;;;;;22.23;9.27;;;;;;;;;;5059021;28;20028;-67
2021/10/19 01:05:55;;;;;;;19.42;10.27;;;;;;;;;;5048913;28;20024;-67
2021/10/19 01:08:21;;;;;;;17.35;10.27;;;;;;;;;;5051414;28;20036;-67
2021/10/19 01:10:47;;;;;;;17.88;10.43;;;;;;;;;;5047308;28;20024;-67
2021/10/19 01:13:14;;;;;;;14.52;9.57;;;;;;;;;;5053945;28;20167;-67
2021/10/19 01:15:40;;;;;;;17.02;9.43;;;;;;;;;;5048005;28;20020;-67
2021/10/19 01:18:06;;;;;;;17.05;9.20;;;;;;;;;;5048566;28;20017;-67
2021/10/19 01:20:33;;;;;;;17.10;8.45;;;;;;;;;;5051117;28;20025;-67
2021/10/19 01:23:00;;;;;;;16.02;9.43;;;;;;;;;;5057675;28;20060;-66
2021/10/19 01:25:27;;;;;;;16.20;8.43;;;;;;;;;;5051945;28;20033;-66
2021/10/19 01:28:00;;;;;;;19.67;9.48;;;;;;;;;;5048426;28;20074;-67
2021/10/19 01:30:26;;;;;;;17.92;9.25;;;;;;;;;;5048071;28;20049;-68
2021/10/19 01:32:53;;;;;;;14.27;9.27;;;;;;;;;;5062202;28;20131;-67
2021/10/19 01:35:19;;;;;;;15.93;9.27;;;;;;;;;;5050898;28;20041;-67
2021/10/19 01:37:46;;;;;;;21.38;11.35;;;;;;;;;;5048331;28;20017;-66
2021/10/19 01:40:13;;;;;;;18.55;10.32;;;;;;;;;;5053020;28;20094;-66
2021/10/19 01:42:39;;;;;;;17.90;9.70;;;;;;;;;;5053364;28;20027;-66
2021/10/19 01:45:12;;;;;;;17.80;10.27;;;;;;;;;;5047861;28;20035;-67
2021/10/19 01:47:38;;;;;;;17.73;9.60;;;;;;;;;;5050459;28;20025;-67
2021/10/19 01:50:04;;;;;;;18.42;9.70;;;;;;;;;;5048998;28;20029;-67
2021/10/19 01:52:30;;;;;;;18.17;9.80;;;;;;;;;;5050671;28;20100;-67
2021/10/19 01:54:56;;;;;;;18.27;9.60;;;;;;;;;;5047262;28;20113;-67
2021/10/19 01:57:23;;;;;;;17.92;9.77;;;;;;;;;;5048249;28;20392;-67
2021/10/19 01:59:49;;;;;;;17.35;10.40;;;;;;;;;;5048882;28;20071;-67
2021/10/19 02:02:15;;;;;;;17.42;9.45;;;;;;;;;;5061884;28;20020;-67
2021/10/19 02:04:41;;;;;;;18.95;9.15;;;;;;;;;;5049312;28;20055;-66
2021/10/19 02:07:07;;;;;;;17.30;9.35;;;;;;;;;;5047908;28;20040;-67
2021/10/19 02:09:33;;;;;;;15.35;8.18;;;;;;;;;;5047393;28;20506;-66
2021/10/19 02:11:59;;;;;;;16.55;8.98;;;;;;;;;;5052593;28;20109;-67
2021/10/19 02:14:25;;;;;;;16.45;9.13;;;;;;;;;;5051528;28;20475;-66
2021/10/19 02:16:51;;;;;;;15.30;9.10;;;;;;;;;;5047490;28;20029;-67
2021/10/19 02:19:21;;;;;;;17.05;8.90;;;;;;;;;;5047727;28;20033;-67
2021/10/19 02:21:47;;;;;;;15.05;8.57;;;;;;;;;;5049834;28;20108;-67
2021/10/19 02:24:13;;;;;;;16.00;8.52;;;;;;;;;;5047380;28;20112;-67
2021/10/19 02:26:39;;;;;;;15.93;8.25;;;;;;;;;;5049555;28;20089;-67
2021/10/19 02:29:05;;;;;;;18.08;8.65;;;;;;;;;;5048766;28;20095;-66
2021/10/19 02:31:31;;;;;;;17.85;7.88;;;;;;;;;;5052969;28;20025;-67
2021/10/19 02:33:57;;;;;;;12.80;7.43;;;;;;;;;;5054978;28;20094;-67
2021/10/19 02:36:23;;;;;;;15.85;8.38;;;;;;;;;;5047002;28;20032;-67
2021/10/19 02:38:49;;;;;;;14.88;8.25;;;;;;;;;;5048796;28;20033;-67
2021/10/19 02:41:15;;;;;;;16.50;7.57;;;;;;;;;;5054590;28;20133;-65
2021/10/19 02:43:41;;;;;;;13.80;7.45;;;;;;;;;;5048745;28;20036;-67
2021/10/19 02:46:07;;;;;;;13.32;7.25;;;;;;;;;;5049399;28;20121;-68
2021/10/19 02:48:33;;;;;;;14.82;8.00;;;;;;;;;;5047459;28;20029;-68
2021/10/19 02:50:59;;;;;;;12.85;7.80;;;;;;;;;;5049554;28;20032;-67
2021/10/19 02:53:25;;;;;;;13.35;7.40;;;;;;;;;;5050686;28;20499;-68
2021/10/19 02:55:51;;;;;;;16.55;8.20;;;;;;;;;;5046953;28;20067;-67
2021/10/19 02:58:17;;;;;;;16.35;8.00;;;;;;;;;;5047399;28;20433;-67
2021/10/19 03:00:43;;;;;;;11.15;6.55;;;;;;;;;;5045836;28;20040;-67
2021/10/19 03:03:09;;;;;;;12.68;6.82;;;;;;;;;;5060649;28;20025;-67
2021/10/19 03:05:35;;;;;;;14.55;7.93;;;;;;;;;;5049351;28;20067;-66
2021/10/19 03:08:01;;;;;;;15.68;7.82;;;;;;;;;;5049739;28;20449;-68
2021/10/19 03:10:27;;;;;;;16.20;7.80;;;;;;;;;;5047351;28;20029;-67
2021/10/19 03:12:53;;;;;;;16.23;7.72;;;;;;;;;;5050902;28;20025;-67
2021/10/19 03:15:22;;;;;;;16.55;7.72;;;;;;;;;;5046869;28;20123;-67
2021/10/19 03:17:48;;;;;;;14.27;7.47;;;;;;;;;;5048197;28;20060;-67
2021/10/19 03:20:14;;;;;;;13.70;7.80;;;;;;;;;;5049132;28;20033;-67
2021/10/19 03:22:40;;;;;;;16.75;8.38;;;;;;;;;;5049300;28;20033;-69
2021/10/19 03:25:06;;;;;;;14.52;7.45;;;;;;;;;;5047996;28;20033;-68
2021/10/19 03:27:32;;;;;;;17.58;8.25;;;;;;;;;;5047526;28;20538;-67
2021/10/19 03:29:58;;;;;;;14.52;7.88;;;;;;;;;;5047755;28;20128;-67
2021/10/19 03:32:24;;;;;;;12.50;7.20;;;;;;;;;;5055240;28;20053;-67
2021/10/19 03:34:50;;;;;;;12.82;6.88;;;;;;;;;;5051694;28;20075;-67
2021/10/19 03:37:16;;;;;;;12.40;7.13;;;;;;;;;;5050079;28;20032;-67
2021/10/19 03:39:42;;;;;;;12.15;7.05;;;;;;;;;;5049941;28;20025;-66
2021/10/19 03:42:08;;;;;;;12.27;6.95;;;;;;;;;;5054901;28;20393;-66
2021/10/19 03:44:34;;;;;;;11.70;6.57;;;;;;;;;;5053270;28;20040;-67
2021/10/19 03:47:00;;;;;;;10.98;6.35;;;;;;;;;;5051216;28;20029;-67
2021/10/19 03:49:26;;;;;;;12.85;6.47;;;;;;;;;;5049960;28;20033;-67
2021/10/19 03:51:52;;;;;;;12.60;6.75;;;;;;;;;;5052682;28;20416;-66
2021/10/19 03:54:18;;;;;;;12.23;6.72;;;;;;;;;;5049271;28;20084;-67
2021/10/19 03:56:44;;;;;;;12.63;6.97;;;;;;;;;;5049624;28;20471;-66
2021/10/19 03:59:10;;;;;;;11.05;5.82;;;;;;;;;;5051305;28;20028;-66
2021/10/19 04:01:37;;;;;;;11.25;6.28;;;;;;;;;;5056393;28;20021;-67
2021/10/19 04:04:03;;;;;;;12.77;7.13;;;;;;;;;;5055541;28;20412;-66
2021/10/19 04:06:29;;;;;;;13.07;6.85;;;;;;;;;;5049801;28;20121;-67
2021/10/19 04:08:56;;;;;;;10.38;5.55;;;;;;;;;;5050001;28;20032;-67
2021/10/19 04:11:22;;;;;;;11.18;5.90;;;;;;;;;;5057370;28;20021;-66
2021/10/19 04:13:48;;;;;;;14.07;6.70;;;;;;;;;;5050530;28;20045;-66
2021/10/19 04:16:14;;;;;;;13.27;6.65;;;;;;;;;;5050023;28;20439;-66
2021/10/19 04:18:40;;;;;;;12.25;6.10;;;;;;;;;;5049618;28;20025;-66
2021/10/19 04:21:06;;;;;;;10.93;6.68;;;;;;;;;;5051728;28;20021;-66
2021/10/19 04:23:32;;;;;;;11.68;7.00;;;;;;;;;;5052986;28;20104;-67
2021/10/19 04:25:58;;;;;;;10.35;5.53;;;;;;;;;;5050274;28;20025;-66
2021/10/19 04:28:24;;;;;;;10.90;6.72;;;;;;;;;;5049293;28;20033;-66
2021/10/19 04:30:51;;;;;;;11.00;6.03;;;;;;;;;;5049349;28;20025;-66
2021/10/19 04:33:17;;;;;;;11.40;6.25;;;;;;;;;;5061620;28;20084;-67
2021/10/19 04:35:43;;;;;;;11.18;6.28;;;;;;;;;;5051156;28;20025;-66
2021/10/19 04:38:09;;;;;;;10.35;5.85;;;;;;;;;;5050775;28;20392;-66
2021/10/19 04:40:35;;;;;;;12.50;6.40;;;;;;;;;;5049176;28;20064;-66
2021/10/19 04:43:02;;;;;;;11.32;6.43;;;;;;;;;;5052507;28;20037;-66
2021/10/19 04:45:28;;;;;;;12.68;6.68;;;;;;;;;;5049407;28;20033;-66
2021/10/19 04:47:56;;;;;;;12.82;6.30;;;;;;;;;;5048339;28;20524;-66
2021/10/19 04:50:22;;;;;;;10.80;5.95;;;;;;;;;;5052063;28;20028;-66
2021/10/19 04:52:48;;;;;;;12.63;6.82;;;;;;;;;;5050843;28;20029;-66
2021/10/19 04:55:14;;;;;;;10.88;6.97;;;;;;;;;;5048950;28;20037;-66
2021/10/19 04:57:40;;;;;;;13.02;6.60;;;;;;;;;;5048736;28;20036;-66
2021/10/19 05:00:06;;;;;;;12.93;7.03;;;;;;;;;;5047944;28;20489;-66
2021/10/19 05:02:32;;;;;;;6.72;3.97;;;;;;;;;;5065293;28;20024;-68
2021/10/19 05:04:58;;;;;;;12.90;6.03;;;;;;;;;;5049394;28;20036;-65
2021/10/19 05:07:24;;;;;;;9.73;5.88;;;;;;;;;;5048557;28;20047;-65
2021/10/19 05:09:50;;;;;;;13.05;7.28;;;;;;;;;;5047491;28;20547;-67
2021/10/19 05:12:16;;;;;;;14.68;7.68;;;;;;;;;;5054460;28;20030;-67
2021/10/19 05:14:42;;;;;;;14.80;7.13;;;;;;;;;;5050877;28;20036;-67
2021/10/19 05:17:10;;;;;;;12.90;7.28;;;;;;;;;;5049616;28;20025;-67
2021/10/19 05:19:35;;;;;;;14.63;8.52;;;;;;;;;;5047046;28;20630;-67
2021/10/19 05:22:01;;;;;;;14.98;7.97;;;;;;;;;;5051359;28;20059;-65
2021/10/19 05:24:27;;;;;;;13.40;7.80;;;;;;;;;;5048585;28;20020;-67
2021/10/19 05:26:53;;;;;;;13.73;6.50;;;;;;;;;;5049797;28;20029;-65
2021/10/19 05:29:19;;;;;;;12.13;6.57;;;;;;;;;;5051852;28;20029;-67
2021/10/19 05:31:45;;;;;;;10.85;6.22;;;;;;;;;;5055522;28;20346;-67
2021/10/19 05:34:11;;;;;;;14.85;8.23;;;;;;;;;;5054205;28;20110;-67
2021/10/19 05:36:37;;;;;;;14.05;6.72;;;;;;;;;;5048252;28;20025;-67
2021/10/19 05:39:05;;;;;;;10.35;6.30;;;;;;;;;;5048063;28;20041;-67
2021/10/19 05:41:31;;;;;;;13.25;6.68;;;;;;;;;;5056310;28;20096;-67
2021/10/19 05:43:57;;;;;;;12.73;6.43;;;;;;;;;;5060656;28;20123;-66
2021/10/19 05:46:23;;;;;;;10.73;6.22;;;;;;;;;;5043994;28;20025;-67
2021/10/19 05:48:49;;;;;;;10.05;5.88;;;;;;;;;;5047254;28;20500;-66
2021/10/19 05:51:15;;;;;;;13.07;6.00;;;;;;;;;;5050864;28;20077;-66
2021/10/19 05:53:41;;;;;;;10.48;5.63;;;;;;;;;;5049625;28;20041;-68
2021/10/19 05:56:07;;;;;;;10.20;5.57;;;;;;;;;;5049358;28;20100;-65
2021/10/19 05:58:33;;;;;;;11.90;6.60;;;;;;;;;;5048005;28;20036;-66
2021/10/19 06:00:59;;;;;;;10.68;6.10;;;;;;;;;;5049044;28;20033;-69
2021/10/19 06:03:25;;;;;;;11.05;6.00;;;;;;;;;;5060221;28;20079;-70
2021/10/19 06:05:51;;;;;;;12.82;5.78;;;;;;;;;;5049331;28;20025;-69
2021/10/19 06:08:17;;;;;;;11.25;6.75;;;;;;;;;;5050949;28;20052;-69
2021/10/19 06:10:43;;;;;;;11.35;6.63;;;;;;;;;;5047618;28;20025;-69
2021/10/19 06:13:09;;;;;;;12.73;7.28;;;;;;;;;;5052675;28;20025;-69
2021/10/19 06:15:35;;;;;;;12.70;6.95;;;;;;;;;;5047913;28;20025;-69
2021/10/19 06:18:01;;;;;;;10.85;6.80;;;;;;;;;;5047768;28;20025;-69
2021/10/19 06:20:27;;;;;;;14.20;7.57;;;;;;;;;;5051000;28;20040;-69
2021/10/19 06:22:53;;;;;;;29.77;10.77;;;;;;;;;;5050029;28;20439;-68
2021/10/19 06:25:19;;;;;;;18.20;8.38;;;;;;;;;;5047423;28;20114;-69
2021/10/19 06:27:44;;;;;;;24.27;9.57;;;;;;;;;;5047454;28;20036;-69
2021/10/19 06:30:11;;;;;;;16.42;7.70;;;;;;;;;;5047602;28;20083;-68
2021/10/19 06:32:40;;;;;;;16.02;7.50;;;;;;;;;;5062755;28;20554;-69
2021/10/19 06:35:08;;;;;;;23.58;9.35;;;;;;;;;;5048875;28;20051;-69
2021/10/19 06:37:34;;;;;;;21.13;9.98;;;;;;;;;;5045991;28;20455;-69
2021/10/19 06:40:00;;;;;;;22.65;8.85;;;;;;;;;;5047499;28;20392;-69
2021/10/19 06:42:26;;;;;;;26.63;10.55;;;;;;;;;;5052351;28;20028;-69
2021/10/19 06:44:52;;;;;;;25.08;10.48;;;;;;;;;;5048134;28;20404;-69
2021/10/19 06:47:18;;;;;;;22.90;9.93;;;;;;;;;;5050170;28;20105;-69
2021/10/19 06:49:44;;;;;;;22.20;10.50;;;;;;;;;;5047249;28;20036;-67
2021/10/19 06:52:10;;;;;;;17.52;7.50;;;;;;;;;;5049595;28;20056;-67
2021/10/19 06:54:36;;;;;;;13.40;7.05;;;;;;;;;;5047231;28;20060;-67
2021/10/19 06:57:02;;;;;;;13.02;6.68;;;;;;;;;;5047359;28;20555;-66
2021/10/19 06:59:28;;;;;;;13.00;7.00;;;;;;;;;;5050702;28;20025;-68
2021/10/19 07:01:54;;;;;;;12.57;6.95;;;;;;;;;;5055954;28;20031;-67
2021/10/19 07:04:20;;;;;;;13.45;6.03;;;;;;;;;;5052899;28;20431;-67
2021/10/19 07:06:46;;;;;;;17.02;6.80;;;;;;;;;;5048535;28;20021;-67
2021/10/19 07:09:12;;;;;;;11.27;5.82;;;;;;;;;;5050977;28;20028;-67
2021/10/19 07:11:38;;;;;;;15.18;5.90;;;;;;;;;;5065711;28;20059;-67
2021/10/19 07:14:04;;;;;;;11.77;5.97;;;;;;;;;;5051634;28;20053;-67
2021/10/19 07:16:30;;;;;;;9.55;5.30;;;;;;;;;;5050702;28;20025;-67
2021/10/19 07:18:56;;;;;;;10.52;5.18;;;;;;;;;;5050373;28;20021;-67
2021/10/19 07:21:23;;;;;;;10.20;5.75;;;;;;;;;;5053371;28;20017;-67
2021/10/19 07:23:49;;;;;;;13.80;5.87;;;;;;;;;;5052055;28;20029;-68
2021/10/19 07:26:15;;;;;;;10.13;5.55;;;;;;;;;;5052733;28;20074;-66
2021/10/19 07:28:41;;;;;;;10.45;6.20;;;;;;;;;;5050507;28;20025;-67
2021/10/19 07:31:07;;;;;;;8.75;5.25;;;;;;;;;;5052857;28;20486;-68
2021/10/19 07:33:33;;;;;;;11.73;6.10;;;;;;;;;;5060577;28;20041;-68
2021/10/19 07:35:59;;;;;;;10.27;5.50;;;;;;;;;;5050596;28;20613;-68
2021/10/19 07:38:25;;;;;;;13.02;5.75;;;;;;;;;;5060394;28;20024;-67
2021/10/19 07:40:51;;;;;;;8.45;4.95;;;;;;;;;;5049224;28;20428;-67
2021/10/19 07:43:17;;;;;;;8.60;5.22;;;;;;;;;;5052419;28;20111;-68
2021/10/19 07:45:43;;;;;;;11.95;6.35;;;;;;;;;;5048745;28;20021;-68
2021/10/19 07:48:09;;;;;;;9.60;5.80;;;;;;;;;;5048028;28;20013;-68
2021/10/19 07:50:35;;;;;;;11.25;6.38;;;;;;;;;;5051160;28;20109;-68
2021/10/19 07:53:01;;;;;;;9.73;6.43;;;;;;;;;;5052233;28;20086;-68
2021/10/19 07:55:30;;;;;;;14.63;6.55;;;;;;;;;;5048144;28;20145;-68
2021/10/19 07:57:56;;;;;;;11.07;5.72;;;;;;;;;;5049550;28;20028;-68
2021/10/19 08:00:24;;;;;;;14.00;5.82;;;;;;;;;;5050567;28;20017;-68
2021/10/19 08:02:50;;;;;;;12.00;6.13;;;;;;;;;;5064606;28;20588;-68
2021/10/19 08:05:16;;;;;;;9.95;6.28;;;;;;;;;;5052619;28;20017;-67
2021/10/19 08:07:43;;;;;;;9.00;5.65;;;;;;;;;;5049875;28;20105;-67
2021/10/19 08:10:10;;;;;;;9.45;4.80;;;;;;;;;;5049772;28;20491;-67
2021/10/19 08:12:36;;;;;;;9.43;5.18;;;;;;;;;;5055121;28;20028;-67
2021/10/19 08:15:03;;;;;;;10.52;5.35;;;;;;;;;;5049751;28;20069;-66
2021/10/19 08:17:29;;;;;;;10.05;5.55;;;;;;;;;;5052467;28;20448;-67
2021/10/19 08:19:59;;;;;;;9.63;5.93;;;;;;;;;;5052011;28;20056;-66
2021/10/19 08:22:26;;;;;;;10.63;6.57;;;;;;;;;;5052041;28;20017;-67
2021/10/19 08:24:52;;;;;;;10.00;5.68;;;;;;;;;;5049673;28;20040;-67
2021/10/19 08:27:18;;;;;;;10.23;5.53;;;;;;;;;;5049686;28;20022;-66
2021/10/19 08:29:44;;;;;;;11.50;5.50;;;;;;;;;;5050879;28;20473;-66
2021/10/19 08:32:10;;;;;;;9.40;5.47;;;;;;;;;;5063282;28;20513;-66
2021/10/19 08:34:36;;;;;;;11.50;5.93;;;;;;;;;;5052276;28;20063;-68
2021/10/19 08:37:02;;;;;;;9.30;4.88;;;;;;;;;;5049452;28;20028;-67
2021/10/19 08:39:27;;;;;;;10.98;6.15;;;;;;;;;;5049057;28;20029;-67
2021/10/19 08:41:54;;;;;;;8.38;5.10;;;;;;;;;;5055266;28;20100;-68
2021/10/19 08:44:19;;;;;;;11.20;6.32;;;;;;;;;;5051858;28;20546;-67
2021/10/19 08:46:45;;;;;;;8.88;5.30;;;;;;;;;;5049097;28;20025;-68
2021/10/19 08:49:11;;;;;;;9.10;5.60;;;;;;;;;;5049491;28;20033;-67
2021/10/19 08:51:40;;;;;;;8.35;4.65;;;;;;;;;;5051655;28;20380;-67
2021/10/19 08:54:05;;;;;;;;;;;;;;;;;;5048973;28;20026;-67
2021/10/19 08:56:32;;;;;;;7.22;4.40;;;;;;;;;;5052295;28;19954;-67
2021/10/19 08:58:59;;;;;;;6.03;3.83;;;;;;;;;;5049892;28;20108;-67
2021/10/19 09:01:32;;;;;;;8.43;3.97;;;;;;;;;;5048588;28;20029;-68
2021/10/19 09:03:58;;;;;;;9.00;4.75;;;;;;;;;;5048678;28;20491;-67
2021/10/19 09:06:32;;;;;;;7.53;4.18;;;;;;;;;;5048618;28;20029;-67
2021/10/19 09:09:03;;;;;;;9.77;5.13;;;;;;;;;;5033774;28;20018;-68
2021/10/19 09:11:36;;;;;;;11.00;4.72;;;;;;;;;;5052419;28;20024;-68
2021/10/19 09:14:02;;;;;;;9.50;4.82;;;;;;;;;;5051269;28;20040;-68
2021/10/19 09:16:41;;;;;;;7.75;4.80;;;;;;;;;;5048112;28;20160;-67
2021/10/19 09:19:08;;;;;;;9.38;4.60;;;;;;;;;;5048665;28;20029;-67
2021/10/19 09:21:34;;;;;;;8.07;4.65;;;;;;;;;;5049545;28;20092;-67
2021/10/19 09:24:16;;;;;;;11.07;5.32;;;;;;;;;;5047366;28;20136;-67
2021/10/19 09:26:57;;;;;;;9.68;5.53;;;;;;;;;;5050797;28;20031;-67
2021/10/19 09:29:23;;;;;;;10.48;5.50;;;;;;;;;;5051467;28;20028;-67
2021/10/19 09:31:50;;;;;;;9.57;5.03;;;;;;;;;;5048088;28;20104;-67
2021/10/19 09:34:16;;;;;;;9.07;4.63;;;;;;;;;;5047757;28;20114;-67
2021/10/19 09:36:42;;;;;;;10.25;6.47;;;;;;;;;;5048613;28;20025;-67
2021/10/19 09:39:08;;;;;;;11.65;5.78;;;;;;;;;;5048016;28;20021;-67
2021/10/19 09:41:44;;;;;;;8.68;5.35;;;;;;;;;;5050532;28;20017;-67
2021/10/19 09:44:14;;;;;;;8.43;4.68;;;;;;;;;;5049663;28;20039;-67
2021/10/19 09:46:41;;;;;;;7.03;4.15;;;;;;;;;;5048030;28;20494;-67
2021/10/19 09:49:12;;;;;;;7.93;4.40;;;;;;;;;;5047833;28;20373;-68
2021/10/19 09:51:39;;;;;;;5.65;3.78;;;;;;;;;;5049184;28;20107;-68
2021/10/19 09:54:07;;;;;;;7.45;3.65;;;;;;;;;;5048273;28;20123;-68
2021/10/19 09:56:33;;;;;;;6.43;3.83;;;;;;;;;;5050863;28;20075;-69
2021/10/19 09:58:59;;;;;;;5.38;3.08;;;;;;;;;;5048454;28;20516;-68
2021/10/19 10:01:26;;;;;;;6.63;3.33;;;;;;;;;;5047135;28;20044;-69
2021/10/19 10:03:52;;;;;;;6.85;3.30;;;;;;;;;;5045742;28;20086;-69
2021/10/19 10:06:19;;;;;;;7.45;3.60;;;;;;;;;;5048733;28;20052;-69
2021/10/19 10:08:46;;;;;;;10.75;3.40;;;;;;;;;;5049879;28;20025;-69
2021/10/19 10:11:13;;;;;;;6.63;3.58;;;;;;;;;;5050659;28;20021;-68
2021/10/19 10:13:39;;;;;;;8.55;4.07;;;;;;;;;;5048466;28;20098;-67
2021/10/19 10:16:09;;;;;;;7.65;4.70;;;;;;;;;;5048915;28;20548;-68
2021/10/19 10:18:35;;;;;;;10.73;5.70;;;;;;;;;;5047043;28;20028;-69
2021/10/19 10:21:14;;;;;;;10.88;5.30;;;;;;;;;;5048494;28;20122;-69
2021/10/19 10:23:42;;;;;;;7.93;4.40;;;;;;;;;;5046846;28;20074;-68
2021/10/19 10:26:11;;;;;;;8.02;3.90;;;;;;;;;;5050515;28;20045;-69
2021/10/19 10:28:37;;;;;;;8.13;4.10;;;;;;;;;;5048204;28;20024;-68
2021/10/19 10:31:07;;;;;;;9.27;3.97;;;;;;;;;;5044545;28;20554;-69
2021/10/19 10:33:33;;;;;;;7.20;3.35;;;;;;;;;;5037958;28;20049;-70
2021/10/19 10:36:10;;;;;;;5.25;2.90;;;;;;;;;;5043057;28;20033;-70
2021/10/19 10:38:37;;;;;;;7.70;3.47;;;;;;;;;;5047539;28;20049;-71
2021/10/19 10:41:13;;;;;;;7.35;3.50;;;;;;;;;;5053157;28;20277;-70
2021/10/19 10:43:40;;;;;;;8.20;4.20;;;;;;;;;;5049904;28;20423;-68
2021/10/19 10:46:06;;;;;;;6.30;3.63;;;;;;;;;;5051204;28;20033;-71
2021/10/19 10:48:32;;;;;;;7.05;3.65;;;;;;;;;;5051796;28;20112;-69
2021/10/19 10:50:59;;;;;;;7.95;4.40;;;;;;;;;;5052710;28;20472;-69
2021/10/19 10:53:51;;;;;;;9.20;3.55;;;;;;;;;;5054330;28;20330;-69
2021/10/19 10:56:17;;;;;;;6.28;3.30;;;;;;;;;;5035987;28;20373;-71
2021/10/19 10:58:44;;;;;;;5.65;3.22;;;;;;;;;;5048445;28;20107;-69
2021/10/19 11:01:16;;;;;;;6.35;3.20;;;;;;;;;;5051328;28;20036;-69
2021/10/19 11:03:43;;;;;;;4.68;2.85;;;;;;;;;;5051993;28;20096;-69
2021/10/19 11:06:11;;;;;;;5.57;3.10;;;;;;;;;;5052565;28;20064;-68
2021/10/19 11:08:37;;;;;;;7.28;3.47;;;;;;;;;;5038608;28;20017;-69
2021/10/19 11:11:03;;;;;;;6.32;3.33;;;;;;;;;;5052486;28;20147;-69
2021/10/19 11:13:33;;;;;;;8.27;3.53;;;;;;;;;;5051946;28;20102;-69
2021/10/19 11:15:59;;;;;;;7.15;3.90;;;;;;;;;;5050648;28;20037;-68
2021/10/19 11:18:27;;;;;;;6.20;3.80;;;;;;;;;;5052463;28;20017;-68
2021/10/19 11:20:54;;;;;;;6.72;3.92;;;;;;;;;;5051184;28;20017;-68
2021/10/19 11:23:21;;;;;;;7.65;3.75;;;;;;;;;;5054149;28;20055;-68
2021/10/19 11:25:47;;;;;;;7.47;4.05;;;;;;;;;;5046378;28;20132;-68
2021/10/19 11:28:13;;;;;;;7.10;3.65;;;;;;;;;;5046017;28;20103;-68
2021/10/19 11:30:40;;;;;;;6.30;3.55;;;;;;;;;;5046293;28;20040;-68
2021/10/19 11:33:06;;;;;;;6.53;3.50;;;;;;;;;;5048925;28;20488;-68
2021/10/19 11:35:32;;;;;;;5.45;3.50;;;;;;;;;;5051464;28;20037;-69
2021/10/19 11:37:58;;;;;;;9.00;3.50;;;;;;;;;;5056407;28;20021;-68
2021/10/19 11:40:25;;;;;;;6.55;3.38;;;;;;;;;;5053889;28;20036;-69
2021/10/19 11:42:56;;;;;;;9.20;3.75;;;;;;;;;;5049223;28;20028;-69
2021/10/19 11:45:23;;;;;;;5.75;3.38;;;;;;;;;;5049915;28;20025;-69
2021/10/19 11:47:53;;;;;;;6.90;3.65;;;;;;;;;;5053395;28;20385;-69
2021/10/19 11:50:21;;;;;;;6.28;3.40;;;;;;;;;;5053028;28;20036;-69
2021/10/19 11:52:48;;;;;;;6.70;3.75;;;;;;;;;;5048354;28;20495;-69
2021/10/19 11:55:16;;;;;;;6.60;3.17;;;;;;;;;;5049739;28;20051;-69
2021/10/19 11:57:41;;;;;;;5.13;3.38;;;;;;;;;;5052073;28;20036;-69
2021/10/19 12:00:09;;;;;;;7.57;3.90;;;;;;;;;;5048746;28;20033;-68
2021/10/19 12:02:35;;;;;;;8.07;4.05;;;;;;;;;;5051225;28;20512;-68
2021/10/19 12:05:05;;;;;;;7.20;3.85;;;;;;;;;;5050215;28;20032;-68
2021/10/19 12:07:32;;;;;;;6.95;3.88;;;;;;;;;;5051849;28;20139;-69
2021/10/19 12:10:07;;;;;;;7.57;4.07;;;;;;;;;;5059481;28;20024;-69
2021/10/19 12:12:33;;;;;;;8.27;4.32;;;;;;;;;;5050032;28;20134;-68
2021/10/19 12:14:59;;;;;;;9.65;4.60;;;;;;;;;;5048508;28;20047;-69
2021/10/19 12:17:25;;;;;;;6.88;4.00;;;;;;;;;;5053253;28;20112;-69
2021/10/19 12:19:55;;;;;;;9.52;4.68;;;;;;;;;;5049857;28;20079;-69
2021/10/19 12:22:21;;;;;;;6.70;3.90;;;;;;;;;;5051207;28;20040;-69
2021/10/19 12:24:47;;;;;;;10.02;4.70;;;;;;;;;;5049535;28;20036;-68
2021/10/19 12:27:17;;;;;;;13.23;4.80;;;;;;;;;;5048874;28;20022;-68
2021/10/19 12:29:45;;;;;;;8.30;4.40;;;;;;;;;;5051902;28;20112;-69
2021/10/19 12:32:11;;;;;;;8.43;4.53;;;;;;;;;;5050570;28;20040;-69
2021/10/19 12:34:37;;;;;;;9.88;4.82;;;;;;;;;;5049485;28;20174;-69
2021/10/19 12:37:05;;;;;;;7.78;4.43;;;;;;;;;;5048567;28;20040;-69
2021/10/19 12:39:33;;;;;;;9.93;4.68;;;;;;;;;;5049280;28;20024;-69
2021/10/19 12:41:59;;;;;;;11.70;5.03;;;;;;;;;;5039199;28;20035;-68
2021/10/19 12:44:26;;;;;;;8.05;4.90;;;;;;;;;;5048470;28;20025;-69
2021/10/19 12:46:52;;;;;;;9.67;4.30;;;;;;;;;;5049096;28;20451;-69
2021/10/19 12:49:18;;;;;;;8.75;5.00;;;;;;;;;;5048905;28;20025;-68
2021/10/19 12:51:45;;;;;;;16.20;5.10;;;;;;;;;;5050470;28;20112;-69
2021/10/19 12:54:11;;;;;;;9.02;4.63;;;;;;;;;;5048773;28;20034;-68
2021/10/19 12:56:38;;;;;;;11.32;5.28;;;;;;;;;;5051262;28;20098;-68
2021/10/19 12:59:05;;;;;;;9.15;5.55;;;;;;;;;;5050321;28;20033;-69
2021/10/19 13:01:32;;;;;;;11.70;4.75;;;;;;;;;;5048570;28;20029;-69
2021/10/19 13:03:58;;;;;;;10.07;5.55;;;;;;;;;;5048166;28;20063;-68
2021/10/19 13:06:25;;;;;;;18.52;5.68;;;;;;;;;;5048803;28;20061;-69
2021/10/19 13:08:52;;;;;;;10.02;5.63;;;;;;;;;;5049313;28;20040;-69
2021/10/19 13:11:19;;;;;;;9.15;4.95;;;;;;;;;;5051058;28;20025;-66
2021/10/19 13:13:45;;;;;;;9.15;4.85;;;;;;;;;;5048794;28;20108;-67
2021/10/19 13:16:12;;;;;;;10.95;5.07;;;;;;;;;;5048462;28;20027;-66
2021/10/19 13:18:41;;;;;;;10.85;5.38;;;;;;;;;;5048277;28;20389;-67
2021/10/19 13:21:08;;;;;;;7.90;5.07;;;;;;;;;;5049438;28;20516;-67
2021/10/19 13:23:34;;;;;;;11.55;5.65;;;;;;;;;;5051277;28;20103;-67
2021/10/19 13:26:00;;;;;;;12.63;5.95;;;;;;;;;;5049570;28;20039;-66
2021/10/19 13:28:26;;;;;;;11.30;6.50;;;;;;;;;;5048249;28;20477;-67
2021/10/19 13:30:53;;;;;;;12.10;6.35;;;;;;;;;;5046818;28;20040;-66
2021/10/19 13:33:19;;;;;;;14.75;7.15;;;;;;;;;;5048302;28;20045;-65
2021/10/19 13:35:45;;;;;;;13.15;7.78;;;;;;;;;;5049888;28;20025;-67
2021/10/19 13:38:11;;;;;;;13.77;8.35;;;;;;;;;;5049635;28;20025;-67
2021/10/19 13:40:39;;;;;;;15.65;9.15;;;;;;;;;;5048071;28;20052;-67
2021/10/19 13:43:05;;;;;;;16.90;11.02;;;;;;;;;;5048129;28;20017;-67
2021/10/19 13:45:32;;;;;;;15.95;9.95;;;;;;;;;;5048554;28;20021;-67
2021/10/19 13:47:58;;;;;;;15.20;10.13;;;;;;;;;;5031875;28;20025;-67
2021/10/19 13:50:24;;;;;;;17.02;10.70;;;;;;;;;;5051429;28;20519;-66
2021/10/19 13:52:50;;;;;;;15.50;9.77;;;;;;;;;;5048935;28;20036;-67
2021/10/19 13:55:17;;;;;;;15.85;9.52;;;;;;;;;;5047840;28;20051;-66
2021/10/19 13:57:44;;;;;;;12.60;8.82;;;;;;;;;;5047513;28;20029;-65
2021/10/19 14:00:12;;;;;;;17.45;8.85;;;;;;;;;;5048132;28;20526;-69
2021/10/19 14:02:37;;;;;;;;;;;;;;;;;;5061884;28;20020;-66
2021/10/19 14:05:04;;;;;;;9.95;7.00;;;;;;;;;;5049103;28;20460;-68
2021/10/19 14:07:30;;;;;;;12.77;7.97;;;;;;;;;;5047384;28;20041;-69
2021/10/19 14:09:56;;;;;;;15.50;8.70;;;;;;;;;;5047121;28;20105;-69
2021/10/19 14:12:22;;;;;;;11.65;7.53;;;;;;;;;;5047496;28;20040;-69
2021/10/19 14:14:48;;;;;;;11.38;7.32;;;;;;;;;;5049313;28;20033;-69
2021/10/19 14:17:14;;;;;;;13.50;7.53;;;;;;;;;;5050572;28;20013;-68
2021/10/19 14:19:40;;;;;;;15.23;8.98;;;;;;;;;;5049382;28;20025;-68
2021/10/19 14:22:09;;;;;;;20.88;10.10;;;;;;;;;;5049004;28;20021;-68
2021/10/19 14:24:35;;;;;;;14.32;8.88;;;;;;;;;;5049404;28;20032;-69
2021/10/19 14:27:01;;;;;;;16.60;9.35;;;;;;;;;;5049393;28;20060;-69
2021/10/19 14:29:28;;;;;;;44.65;18.52;;;;;;;;;;5050739;28;20028;-68